sensor_id;sensor_type;location;lat;lon;timestamp;temperature;humidity
7588;DHT22;3835;48.850;8.938;2022-08-19T00:01:37;19.40;99.90
7588;DHT22;3835;48.850;8.938;2022-08-19T00:04:07;19.40;99.90
7588;DHT22;3835;48.850;8.938;2022-08-19T00:06:35;19.40;99.90
7588;DHT22;3835;48.850;8.938;2022-08-19T00:09:04;19.40;99.90
7588;DHT22;3835;48.850;8.938;2022-08-19T00:11:31;19.40;99.90
7588;DHT22;3835;48.850;8.938;2022-08-19T00:13:58;19.40;99.90
7588;DHT22;3835;48.850;8.938;2022-08-19T00:16:26;19.40;99.90
7588;DHT22;3835;48.850;8.938;2022-08-19T00:18:54;19.40;99.90
7588;DHT22;3835;48.850;8.938;2022-08-19T00:21:24;19.40;99.90
7588;DHT22;3835;48.850;8.938;2022-08-19T00:23:51;19.40;99.90
7588;DHT22;3835;48.850;8.938;2022-08-19T00:26:19;19.30;99.90
7588;DHT22;3835;48.850;8.938;2022-08-19T00:28:46;19.40;99.90
7588;DHT22;3835;48.850;8.938;2022-08-19T00:31:13;19.40;99.90
7588;DHT22;3835;48.850;8.938;2022-08-19T00:33:41;19.30;99.90
7588;DHT22;3835;48.850;8.938;2022-08-19T00:36:09;19.30;99.90
7588;DHT22;3835;48.850;8.938;2022-08-19T00:38:38;19.30;99.90
7588;DHT22;3835;48.850;8.938;2022-08-19T00:41:07;19.30;99.90
7588;DHT22;3835;48.850;8.938;2022-08-19T00:43:34;19.30;99.90
7588;DHT22;3835;48.850;8.938;2022-08-19T00:46:01;19.30;99.90
7588;DHT22;3835;48.850;8.938;2022-08-19T00:48:30;19.30;99.90
7588;DHT22;3835;48.850;8.938;2022-08-19T00:50:58;19.30;99.90
7588;DHT22;3835;48.850;8.938;2022-08-19T00:53:28;19.20;99.90
7588;DHT22;3835;48.850;8.938;2022-08-19T00:55:59;19.20;99.90
7588;DHT22;3835;48.850;8.938;2022-08-19T00:58:29;19.20;99.90
7588;DHT22;3835;48.850;8.938;2022-08-19T01:00:56;19.20;99.90
7588;DHT22;3835;48.850;8.938;2022-08-19T01:03:23;19.20;99.90
7588;DHT22;3835;48.850;8.938;2022-08-19T01:05:52;19.20;99.90
7588;DHT22;3835;48.850;8.938;2022-08-19T01:08:20;19.20;99.90
7588;DHT22;3835;48.850;8.938;2022-08-19T01:10:51;19.20;99.90
7588;DHT22;3835;48.850;8.938;2022-08-19T01:13:22;19.20;99.90
7588;DHT22;3835;48.850;8.938;2022-08-19T01:15:54;19.20;99.90
7588;DHT22;3835;48.850;8.938;2022-08-19T01:18:21;19.20;99.90
7588;DHT22;3835;48.850;8.938;2022-08-19T01:20:48;19.10;99.90
7588;DHT22;3835;48.850;8.938;2022-08-19T01:23:17;19.10;99.90
7588;DHT22;3835;48.850;8.938;2022-08-19T01:25:49;19.10;99.90
7588;DHT22;3835;48.850;8.938;2022-08-19T01:28:18;19.10;99.90
7588;DHT22;3835;48.850;8.938;2022-08-19T01:30:45;19.00;99.90
7588;DHT22;3835;48.850;8.938;2022-08-19T01:33:13;19.00;99.90
7588;DHT22;3835;48.850;8.938;2022-08-19T01:35:41;19.00;99.90
7588;DHT22;3835;48.850;8.938;2022-08-19T01:38:18;19.00;99.90
7588;DHT22;3835;48.850;8.938;2022-08-19T01:40:46;18.90;99.90
7588;DHT22;3835;48.850;8.938;2022-08-19T01:43:13;18.90;99.90
7588;DHT22;3835;48.850;8.938;2022-08-19T01:45:40;18.90;99.90
7588;DHT22;3835;48.850;8.938;2022-08-19T01:48:08;18.90;99.90
7588;DHT22;3835;48.850;8.938;2022-08-19T01:50:35;18.90;99.90
7588;DHT22;3835;48.850;8.938;2022-08-19T01:53:06;18.90;99.90
7588;DHT22;3835;48.850;8.938;2022-08-19T01:55:34;18.90;99.90
7588;DHT22;3835;48.850;8.938;2022-08-19T01:58:04;18.90;99.90
7588;DHT22;3835;48.850;8.938;2022-08-19T02:00:33;18.90;99.90
7588;DHT22;3835;48.850;8.938;2022-08-19T02:02:59;18.90;99.90
7588;DHT22;3835;48.850;8.938;2022-08-19T02:05:27;18.90;99.90
7588;DHT22;3835;48.850;8.938;2022-08-19T02:07:55;18.90;99.90
7588;DHT22;3835;48.850;8.938;2022-08-19T02:10:22;18.90;99.90
7588;DHT22;3835;48.850;8.938;2022-08-19T02:12:50;18.90;99.90
7588;DHT22;3835;48.850;8.938;2022-08-19T02:15:18;18.90;99.90
7588;DHT22;3835;48.850;8.938;2022-08-19T02:17:46;18.90;99.90
7588;DHT22;3835;48.850;8.938;2022-08-19T02:20:14;18.90;99.90
7588;DHT22;3835;48.850;8.938;2022-08-19T02:22:42;18.80;99.90
7588;DHT22;3835;48.850;8.938;2022-08-19T02:25:09;18.80;99.90
7588;DHT22;3835;48.850;8.938;2022-08-19T02:27:37;18.80;99.90
7588;DHT22;3835;48.850;8.938;2022-08-19T02:30:05;18.80;99.90
7588;DHT22;3835;48.850;8.938;2022-08-19T02:32:33;18.80;99.90
7588;DHT22;3835;48.850;8.938;2022-08-19T02:35:00;18.80;99.90
7588;DHT22;3835;48.850;8.938;2022-08-19T02:37:27;18.80;99.90
7588;DHT22;3835;48.850;8.938;2022-08-19T02:40:12;18.70;99.90
7588;DHT22;3835;48.850;8.938;2022-08-19T02:42:38;18.70;99.90
7588;DHT22;3835;48.850;8.938;2022-08-19T02:45:06;18.70;99.90
7588;DHT22;3835;48.850;8.938;2022-08-19T02:47:35;18.70;99.90
7588;DHT22;3835;48.850;8.938;2022-08-19T02:50:03;18.60;99.90
7588;DHT22;3835;48.850;8.938;2022-08-19T02:52:32;18.60;99.90
7588;DHT22;3835;48.850;8.938;2022-08-19T02:54:59;18.60;99.90
7588;DHT22;3835;48.850;8.938;2022-08-19T02:57:26;18.60;99.90
7588;DHT22;3835;48.850;8.938;2022-08-19T02:59:54;18.60;99.90
7588;DHT22;3835;48.850;8.938;2022-08-19T03:02:20;18.50;99.90
7588;DHT22;3835;48.850;8.938;2022-08-19T03:04:48;18.50;99.90
7588;DHT22;3835;48.850;8.938;2022-08-19T03:07:16;18.50;99.90
7588;DHT22;3835;48.850;8.938;2022-08-19T03:09:43;18.50;99.90
7588;DHT22;3835;48.850;8.938;2022-08-19T03:12:11;18.50;99.90
7588;DHT22;3835;48.850;8.938;2022-08-19T03:14:37;18.50;99.90
7588;DHT22;3835;48.850;8.938;2022-08-19T03:17:05;18.50;99.90
7588;DHT22;3835;48.850;8.938;2022-08-19T03:19:31;18.50;99.90
7588;DHT22;3835;48.850;8.938;2022-08-19T03:22:00;18.50;99.90
7588;DHT22;3835;48.850;8.938;2022-08-19T03:24:28;18.40;99.90
7588;DHT22;3835;48.850;8.938;2022-08-19T03:26:56;18.50;99.90
7588;DHT22;3835;48.850;8.938;2022-08-19T03:29:25;18.40;99.90
7588;DHT22;3835;48.850;8.938;2022-08-19T03:31:52;18.40;99.90
7588;DHT22;3835;48.850;8.938;2022-08-19T03:34:23;18.40;99.90
7588;DHT22;3835;48.850;8.938;2022-08-19T03:36:51;18.40;99.90
7588;DHT22;3835;48.850;8.938;2022-08-19T03:39:20;18.40;99.90
7588;DHT22;3835;48.850;8.938;2022-08-19T03:41:49;18.40;99.90
7588;DHT22;3835;48.850;8.938;2022-08-19T03:44:18;18.40;99.90
7588;DHT22;3835;48.850;8.938;2022-08-19T03:46:47;18.40;99.90
7588;DHT22;3835;48.850;8.938;2022-08-19T03:49:14;18.40;99.90
7588;DHT22;3835;48.850;8.938;2022-08-19T03:51:42;18.40;99.90
7588;DHT22;3835;48.850;8.938;2022-08-19T03:54:12;18.40;99.90
7588;DHT22;3835;48.850;8.938;2022-08-19T03:56:42;18.30;99.90
7588;DHT22;3835;48.850;8.938;2022-08-19T03:59:13;18.30;99.90
7588;DHT22;3835;48.850;8.938;2022-08-19T04:01:40;18.40;99.90
7588;DHT22;3835;48.850;8.938;2022-08-19T04:04:07;18.40;99.90
7588;DHT22;3835;48.850;8.938;2022-08-19T04:06:37;18.30;99.90
7588;DHT22;3835;48.850;8.938;2022-08-19T04:09:07;18.30;99.90
7588;DHT22;3835;48.850;8.938;2022-08-19T04:11:37;18.30;99.90
7588;DHT22;3835;48.850;8.938;2022-08-19T04:14:09;18.30;99.90
7588;DHT22;3835;48.850;8.938;2022-08-19T04:16:37;18.30;99.90
7588;DHT22;3835;48.850;8.938;2022-08-19T04:19:05;18.30;99.90
7588;DHT22;3835;48.850;8.938;2022-08-19T04:21:32;18.20;99.90
7588;DHT22;3835;48.850;8.938;2022-08-19T04:23:59;18.20;99.90
7588;DHT22;3835;48.850;8.938;2022-08-19T04:26:30;18.20;99.90
7588;DHT22;3835;48.850;8.938;2022-08-19T04:28:58;18.20;99.90
7588;DHT22;3835;48.850;8.938;2022-08-19T04:31:28;18.20;99.90
7588;DHT22;3835;48.850;8.938;2022-08-19T04:33:56;18.20;99.90
7588;DHT22;3835;48.850;8.938;2022-08-19T04:36:25;18.20;99.90
7588;DHT22;3835;48.850;8.938;2022-08-19T04:38:54;18.20;99.90
7588;DHT22;3835;48.850;8.938;2022-08-19T04:41:22;18.20;99.90
7588;DHT22;3835;48.850;8.938;2022-08-19T04:44:07;18.20;99.90
7588;DHT22;3835;48.850;8.938;2022-08-19T04:46:35;18.20;99.90
7588;DHT22;3835;48.850;8.938;2022-08-19T04:49:04;18.30;99.90
7588;DHT22;3835;48.850;8.938;2022-08-19T04:51:32;18.30;99.90
7588;DHT22;3835;48.850;8.938;2022-08-19T04:53:59;18.30;99.90
7588;DHT22;3835;48.850;8.938;2022-08-19T04:56:27;18.30;99.90
7588;DHT22;3835;48.850;8.938;2022-08-19T04:58:55;18.30;99.90
7588;DHT22;3835;48.850;8.938;2022-08-19T05:01:24;18.30;99.90
7588;DHT22;3835;48.850;8.938;2022-08-19T05:03:52;18.30;99.90
7588;DHT22;3835;48.850;8.938;2022-08-19T05:06:20;18.30;99.90
7588;DHT22;3835;48.850;8.938;2022-08-19T05:08:48;18.30;99.90
7588;DHT22;3835;48.850;8.938;2022-08-19T05:11:17;18.30;99.90
7588;DHT22;3835;48.850;8.938;2022-08-19T05:13:46;18.40;99.90
7588;DHT22;3835;48.850;8.938;2022-08-19T05:16:15;18.40;99.90
7588;DHT22;3835;48.850;8.938;2022-08-19T05:18:43;18.40;99.90
7588;DHT22;3835;48.850;8.938;2022-08-19T05:21:30;18.40;99.90
7588;DHT22;3835;48.850;8.938;2022-08-19T05:24:15;18.50;99.90
7588;DHT22;3835;48.850;8.938;2022-08-19T05:26:46;18.40;99.90
7588;DHT22;3835;48.850;8.938;2022-08-19T05:29:14;18.50;99.90
7588;DHT22;3835;48.850;8.938;2022-08-19T05:31:41;18.50;99.90
7588;DHT22;3835;48.850;8.938;2022-08-19T05:34:08;18.50;99.90
7588;DHT22;3835;48.850;8.938;2022-08-19T05:36:39;18.50;99.90
7588;DHT22;3835;48.850;8.938;2022-08-19T05:39:07;18.50;99.90
7588;DHT22;3835;48.850;8.938;2022-08-19T05:41:34;18.60;99.90
7588;DHT22;3835;48.850;8.938;2022-08-19T05:44:04;18.60;99.90
7588;DHT22;3835;48.850;8.938;2022-08-19T05:46:35;18.60;99.90
7588;DHT22;3835;48.850;8.938;2022-08-19T05:49:03;18.60;99.90
7588;DHT22;3835;48.850;8.938;2022-08-19T05:51:31;18.60;99.90
7588;DHT22;3835;48.850;8.938;2022-08-19T05:53:59;18.60;99.90
7588;DHT22;3835;48.850;8.938;2022-08-19T05:56:27;18.60;99.90
7588;DHT22;3835;48.850;8.938;2022-08-19T05:58:56;18.60;99.90
7588;DHT22;3835;48.850;8.938;2022-08-19T06:01:25;18.60;99.90
7588;DHT22;3835;48.850;8.938;2022-08-19T06:03:52;18.60;99.90
7588;DHT22;3835;48.850;8.938;2022-08-19T06:06:20;18.60;99.90
7588;DHT22;3835;48.850;8.938;2022-08-19T06:08:47;18.60;99.90
7588;DHT22;3835;48.850;8.938;2022-08-19T06:11:19;18.50;99.90
7588;DHT22;3835;48.850;8.938;2022-08-19T06:13:48;18.50;99.90
7588;DHT22;3835;48.850;8.938;2022-08-19T06:16:16;18.60;99.90
7588;DHT22;3835;48.850;8.938;2022-08-19T06:18:48;18.60;99.90
7588;DHT22;3835;48.850;8.938;2022-08-19T06:21:17;18.60;99.90
7588;DHT22;3835;48.850;8.938;2022-08-19T06:23:44;18.60;99.90
7588;DHT22;3835;48.850;8.938;2022-08-19T06:26:13;18.60;99.90
7588;DHT22;3835;48.850;8.938;2022-08-19T06:28:41;18.60;99.90
7588;DHT22;3835;48.850;8.938;2022-08-19T06:31:12;18.70;99.90
7588;DHT22;3835;48.850;8.938;2022-08-19T06:33:40;18.70;99.90
7588;DHT22;3835;48.850;8.938;2022-08-19T06:36:08;18.70;99.90
7588;DHT22;3835;48.850;8.938;2022-08-19T06:38:42;18.80;99.90
7588;DHT22;3835;48.850;8.938;2022-08-19T06:41:08;18.90;99.90
7588;DHT22;3835;48.850;8.938;2022-08-19T06:43:36;19.00;99.90
7588;DHT22;3835;48.850;8.938;2022-08-19T06:46:10;19.00;99.90
7588;DHT22;3835;48.850;8.938;2022-08-19T06:48:37;19.00;99.90
7588;DHT22;3835;48.850;8.938;2022-08-19T06:51:05;19.10;99.90
7588;DHT22;3835;48.850;8.938;2022-08-19T06:53:32;19.10;99.90
7588;DHT22;3835;48.850;8.938;2022-08-19T06:55:58;19.10;99.90
7588;DHT22;3835;48.850;8.938;2022-08-19T06:58:28;19.00;99.90
7588;DHT22;3835;48.850;8.938;2022-08-19T07:00:58;19.10;99.90
7588;DHT22;3835;48.850;8.938;2022-08-19T07:03:28;19.10;99.90
7588;DHT22;3835;48.850;8.938;2022-08-19T07:05:56;19.00;99.90
7588;DHT22;3835;48.850;8.938;2022-08-19T07:08:23;19.00;99.90
7588;DHT22;3835;48.850;8.938;2022-08-19T07:10:52;19.10;99.90
7588;DHT22;3835;48.850;8.938;2022-08-19T07:13:20;19.00;99.90
7588;DHT22;3835;48.850;8.938;2022-08-19T07:15:48;19.10;99.90
7588;DHT22;3835;48.850;8.938;2022-08-19T07:18:16;19.10;99.90
7588;DHT22;3835;48.850;8.938;2022-08-19T07:20:44;19.10;99.90
7588;DHT22;3835;48.850;8.938;2022-08-19T07:23:12;19.10;99.90
7588;DHT22;3835;48.850;8.938;2022-08-19T07:25:39;19.20;99.90
7588;DHT22;3835;48.850;8.938;2022-08-19T07:28:06;19.20;99.90
7588;DHT22;3835;48.850;8.938;2022-08-19T07:30:37;19.30;99.90
7588;DHT22;3835;48.850;8.938;2022-08-19T07:33:04;19.30;99.90
7588;DHT22;3835;48.850;8.938;2022-08-19T07:35:31;19.30;99.90
7588;DHT22;3835;48.850;8.938;2022-08-19T07:38:01;19.30;99.90
7588;DHT22;3835;48.850;8.938;2022-08-19T07:40:31;19.50;99.90
7588;DHT22;3835;48.850;8.938;2022-08-19T07:42:58;19.50;99.90
7588;DHT22;3835;48.850;8.938;2022-08-19T07:45:25;19.60;99.90
7588;DHT22;3835;48.850;8.938;2022-08-19T07:47:52;19.90;99.90
7588;DHT22;3835;48.850;8.938;2022-08-19T07:50:20;20.00;99.90
7588;DHT22;3835;48.850;8.938;2022-08-19T07:52:49;20.00;99.90
7588;DHT22;3835;48.850;8.938;2022-08-19T07:55:19;19.90;99.90
7588;DHT22;3835;48.850;8.938;2022-08-19T07:57:46;19.70;99.90
7588;DHT22;3835;48.850;8.938;2022-08-19T08:00:14;19.70;99.90
7588;DHT22;3835;48.850;8.938;2022-08-19T08:02:41;19.60;99.90
7588;DHT22;3835;48.850;8.938;2022-08-19T08:05:09;19.80;99.90
7588;DHT22;3835;48.850;8.938;2022-08-19T08:07:53;19.90;99.90
7588;DHT22;3835;48.850;8.938;2022-08-19T08:10:38;19.80;99.90
7588;DHT22;3835;48.850;8.938;2022-08-19T08:13:05;19.90;99.90
7588;DHT22;3835;48.850;8.938;2022-08-19T08:15:32;19.90;99.90
7588;DHT22;3835;48.850;8.938;2022-08-19T08:17:59;20.00;99.90
7588;DHT22;3835;48.850;8.938;2022-08-19T08:20:26;19.80;99.90
7588;DHT22;3835;48.850;8.938;2022-08-19T08:22:53;19.80;99.90
7588;DHT22;3835;48.850;8.938;2022-08-19T08:25:38;19.90;99.90
7588;DHT22;3835;48.850;8.938;2022-08-19T08:28:05;19.80;99.90
7588;DHT22;3835;48.850;8.938;2022-08-19T08:30:34;19.80;99.90
7588;DHT22;3835;48.850;8.938;2022-08-19T08:33:03;20.00;99.90
7588;DHT22;3835;48.850;8.938;2022-08-19T08:35:30;20.20;99.90
7588;DHT22;3835;48.850;8.938;2022-08-19T08:37:57;20.30;99.90
7588;DHT22;3835;48.850;8.938;2022-08-19T08:40:29;20.40;99.90
7588;DHT22;3835;48.850;8.938;2022-08-19T08:43:01;20.20;99.90
7588;DHT22;3835;48.850;8.938;2022-08-19T08:45:31;20.10;99.90
7588;DHT22;3835;48.850;8.938;2022-08-19T08:48:02;20.40;99.90
7588;DHT22;3835;48.850;8.938;2022-08-19T08:50:34;20.50;99.90
7588;DHT22;3835;48.850;8.938;2022-08-19T08:53:05;20.70;99.90
7588;DHT22;3835;48.850;8.938;2022-08-19T08:55:32;20.60;99.90
7588;DHT22;3835;48.850;8.938;2022-08-19T08:58:04;20.70;99.90
7588;DHT22;3835;48.850;8.938;2022-08-19T09:00:34;20.60;99.90
7588;DHT22;3835;48.850;8.938;2022-08-19T09:03:03;20.70;99.90
7588;DHT22;3835;48.850;8.938;2022-08-19T09:05:38;20.80;99.90
7588;DHT22;3835;48.850;8.938;2022-08-19T09:08:13;20.50;99.90
7588;DHT22;3835;48.850;8.938;2022-08-19T09:10:46;20.40;99.90
7588;DHT22;3835;48.850;8.938;2022-08-19T09:13:23;20.60;99.90
7588;DHT22;3835;48.850;8.938;2022-08-19T09:15:57;20.80;99.90
7588;DHT22;3835;48.850;8.938;2022-08-19T09:18:38;20.70;99.90
7588;DHT22;3835;48.850;8.938;2022-08-19T09:21:05;20.60;99.90
7588;DHT22;3835;48.850;8.938;2022-08-19T09:23:33;20.80;99.90
7588;DHT22;3835;48.850;8.938;2022-08-19T09:26:00;20.80;99.90
7588;DHT22;3835;48.850;8.938;2022-08-19T09:28:28;20.80;99.90
7588;DHT22;3835;48.850;8.938;2022-08-19T09:30:55;20.70;99.90
7588;DHT22;3835;48.850;8.938;2022-08-19T09:33:21;20.80;99.90
7588;DHT22;3835;48.850;8.938;2022-08-19T09:35:48;21.00;99.90
7588;DHT22;3835;48.850;8.938;2022-08-19T09:38:15;21.00;99.90
7588;DHT22;3835;48.850;8.938;2022-08-19T09:40:42;21.00;99.90
7588;DHT22;3835;48.850;8.938;2022-08-19T09:43:08;21.10;99.90
7588;DHT22;3835;48.850;8.938;2022-08-19T09:48:08;21.10;99.90
7588;DHT22;3835;48.850;8.938;2022-08-19T09:50:35;21.20;99.90
7588;DHT22;3835;48.850;8.938;2022-08-19T09:53:03;21.30;99.90
7588;DHT22;3835;48.850;8.938;2022-08-19T09:55:31;21.40;99.90
7588;DHT22;3835;48.850;8.938;2022-08-19T09:57:59;21.20;99.90
7588;DHT22;3835;48.850;8.938;2022-08-19T10:00:26;21.30;99.90
7588;DHT22;3835;48.850;8.938;2022-08-19T10:02:53;21.30;99.90
7588;DHT22;3835;48.850;8.938;2022-08-19T10:05:21;21.40;99.90
7588;DHT22;3835;48.850;8.938;2022-08-19T10:08:05;21.80;99.90
7588;DHT22;3835;48.850;8.938;2022-08-19T10:10:35;21.50;99.90
7588;DHT22;3835;48.850;8.938;2022-08-19T10:13:02;21.60;99.90
7588;DHT22;3835;48.850;8.938;2022-08-19T10:15:29;21.80;99.90
7588;DHT22;3835;48.850;8.938;2022-08-19T10:17:56;21.70;99.90
7588;DHT22;3835;48.850;8.938;2022-08-19T10:20:26;22.00;99.90
7588;DHT22;3835;48.850;8.938;2022-08-19T10:22:54;22.10;99.90
7588;DHT22;3835;48.850;8.938;2022-08-19T10:25:21;22.40;99.90
7588;DHT22;3835;48.850;8.938;2022-08-19T10:27:48;22.70;99.90
7588;DHT22;3835;48.850;8.938;2022-08-19T10:30:15;22.80;99.90
7588;DHT22;3835;48.850;8.938;2022-08-19T10:32:42;22.80;99.90
7588;DHT22;3835;48.850;8.938;2022-08-19T10:35:09;23.10;99.90
7588;DHT22;3835;48.850;8.938;2022-08-19T10:37:38;23.00;99.90
7588;DHT22;3835;48.850;8.938;2022-08-19T10:40:07;22.90;99.90
7588;DHT22;3835;48.850;8.938;2022-08-19T10:42:36;23.00;99.90
7588;DHT22;3835;48.850;8.938;2022-08-19T10:45:04;23.00;99.90
7588;DHT22;3835;48.850;8.938;2022-08-19T10:47:31;23.00;99.90
7588;DHT22;3835;48.850;8.938;2022-08-19T10:49:58;23.30;99.90
7588;DHT22;3835;48.850;8.938;2022-08-19T10:52:46;22.90;99.90
7588;DHT22;3835;48.850;8.938;2022-08-19T10:55:13;22.80;99.90
7588;DHT22;3835;48.850;8.938;2022-08-19T10:57:57;23.10;99.90
7588;DHT22;3835;48.850;8.938;2022-08-19T11:00:25;23.30;99.90
7588;DHT22;3835;48.850;8.938;2022-08-19T11:02:51;23.20;99.90
7588;DHT22;3835;48.850;8.938;2022-08-19T11:05:19;23.40;99.90
7588;DHT22;3835;48.850;8.938;2022-08-19T11:07:48;23.70;99.90
7588;DHT22;3835;48.850;8.938;2022-08-19T11:10:15;23.70;99.90
7588;DHT22;3835;48.850;8.938;2022-08-19T11:12:44;23.90;99.90
7588;DHT22;3835;48.850;8.938;2022-08-19T11:15:13;24.20;99.90
7588;DHT22;3835;48.850;8.938;2022-08-19T11:17:40;24.20;99.90
7588;DHT22;3835;48.850;8.938;2022-08-19T11:20:10;23.80;99.90
7588;DHT22;3835;48.850;8.938;2022-08-19T11:22:37;23.50;99.90
7588;DHT22;3835;48.850;8.938;2022-08-19T11:25:07;23.30;99.90
7588;DHT22;3835;48.850;8.938;2022-08-19T11:27:38;23.30;99.90
7588;DHT22;3835;48.850;8.938;2022-08-19T11:30:08;23.30;99.90
7588;DHT22;3835;48.850;8.938;2022-08-19T11:32:35;23.00;99.90
7588;DHT22;3835;48.850;8.938;2022-08-19T11:35:01;23.00;99.90
7588;DHT22;3835;48.850;8.938;2022-08-19T11:37:29;23.30;99.90
7588;DHT22;3835;48.850;8.938;2022-08-19T11:39:56;23.60;99.90
7588;DHT22;3835;48.850;8.938;2022-08-19T11:42:24;23.70;99.90
7588;DHT22;3835;48.850;8.938;2022-08-19T11:45:09;23.80;99.90
7588;DHT22;3835;48.850;8.938;2022-08-19T11:47:36;24.10;99.90
7588;DHT22;3835;48.850;8.938;2022-08-19T11:50:05;24.30;99.90
7588;DHT22;3835;48.850;8.938;2022-08-19T11:52:32;24.20;99.90
7588;DHT22;3835;48.850;8.938;2022-08-19T11:54:59;23.90;99.90
7588;DHT22;3835;48.850;8.938;2022-08-19T11:57:27;23.60;99.90
7588;DHT22;3835;48.850;8.938;2022-08-19T11:59:54;23.40;99.90
7588;DHT22;3835;48.850;8.938;2022-08-19T12:02:21;23.60;99.90
7588;DHT22;3835;48.850;8.938;2022-08-19T12:04:48;23.60;99.90
7588;DHT22;3835;48.850;8.938;2022-08-19T12:07:15;23.60;99.90
7588;DHT22;3835;48.850;8.938;2022-08-19T12:09:42;23.80;99.90
7588;DHT22;3835;48.850;8.938;2022-08-19T12:12:09;23.80;99.90
7588;DHT22;3835;48.850;8.938;2022-08-19T12:14:37;24.10;99.90
7588;DHT22;3835;48.850;8.938;2022-08-19T12:17:04;24.30;99.90
7588;DHT22;3835;48.850;8.938;2022-08-19T12:19:33;24.20;99.90
7588;DHT22;3835;48.850;8.938;2022-08-19T12:22:01;24.50;99.90
7588;DHT22;3835;48.850;8.938;2022-08-19T12:24:30;24.70;99.90
7588;DHT22;3835;48.850;8.938;2022-08-19T12:26:58;25.20;99.90
7588;DHT22;3835;48.850;8.938;2022-08-19T12:29:27;25.40;99.90
7588;DHT22;3835;48.850;8.938;2022-08-19T12:32:03;25.50;99.90
7588;DHT22;3835;48.850;8.938;2022-08-19T12:34:30;25.40;99.90
7588;DHT22;3835;48.850;8.938;2022-08-19T12:36:58;25.20;99.90
7588;DHT22;3835;48.850;8.938;2022-08-19T12:39:25;25.30;99.90
7588;DHT22;3835;48.850;8.938;2022-08-19T12:41:52;25.30;99.90
7588;DHT22;3835;48.850;8.938;2022-08-19T12:44:19;25.60;99.90
7588;DHT22;3835;48.850;8.938;2022-08-19T12:46:47;25.70;99.90
7588;DHT22;3835;48.850;8.938;2022-08-19T12:49:16;25.80;99.90
7588;DHT22;3835;48.850;8.938;2022-08-19T12:51:43;25.80;99.90
7588;DHT22;3835;48.850;8.938;2022-08-19T12:54:09;25.50;99.90
7588;DHT22;3835;48.850;8.938;2022-08-19T12:56:36;25.50;99.90
7588;DHT22;3835;48.850;8.938;2022-08-19T12:59:04;25.60;99.90
7588;DHT22;3835;48.850;8.938;2022-08-19T13:01:32;25.50;99.90
7588;DHT22;3835;48.850;8.938;2022-08-19T13:03:59;25.10;99.90
7588;DHT22;3835;48.850;8.938;2022-08-19T13:06:27;25.10;99.90
7588;DHT22;3835;48.850;8.938;2022-08-19T13:08:54;25.10;99.90
7588;DHT22;3835;48.850;8.938;2022-08-19T13:11:22;24.80;99.90
7588;DHT22;3835;48.850;8.938;2022-08-19T13:13:51;24.90;99.90
7588;DHT22;3835;48.850;8.938;2022-08-19T13:16:19;25.00;99.90
7588;DHT22;3835;48.850;8.938;2022-08-19T13:18:47;25.00;99.90
7588;DHT22;3835;48.850;8.938;2022-08-19T13:21:15;24.80;99.90
7588;DHT22;3835;48.850;8.938;2022-08-19T13:23:43;24.70;99.90
7588;DHT22;3835;48.850;8.938;2022-08-19T13:26:11;24.80;99.90
7588;DHT22;3835;48.850;8.938;2022-08-19T13:28:39;24.90;99.90
7588;DHT22;3835;48.850;8.938;2022-08-19T13:31:26;24.90;99.90
7588;DHT22;3835;48.850;8.938;2022-08-19T13:34:12;24.90;99.90
7588;DHT22;3835;48.850;8.938;2022-08-19T13:36:39;25.00;99.90
7588;DHT22;3835;48.850;8.938;2022-08-19T13:39:07;25.10;99.90
7588;DHT22;3835;48.850;8.938;2022-08-19T13:41:34;25.20;99.90
7588;DHT22;3835;48.850;8.938;2022-08-19T13:44:02;25.50;99.90
7588;DHT22;3835;48.850;8.938;2022-08-19T13:46:28;25.30;99.90
7588;DHT22;3835;48.850;8.938;2022-08-19T13:48:56;25.00;99.90
7588;DHT22;3835;48.850;8.938;2022-08-19T13:51:23;24.70;99.90
7588;DHT22;3835;48.850;8.938;2022-08-19T13:53:50;24.50;99.90
7588;DHT22;3835;48.850;8.938;2022-08-19T13:56:19;24.50;99.90
7588;DHT22;3835;48.850;8.938;2022-08-19T13:58:46;24.60;99.90
7588;DHT22;3835;48.850;8.938;2022-08-19T14:01:18;24.50;99.90
7588;DHT22;3835;48.850;8.938;2022-08-19T14:03:46;24.60;99.90
7588;DHT22;3835;48.850;8.938;2022-08-19T14:06:12;24.50;99.90
7588;DHT22;3835;48.850;8.938;2022-08-19T14:08:39;24.40;99.90
7588;DHT22;3835;48.850;8.938;2022-08-19T14:11:07;24.60;99.90
7588;DHT22;3835;48.850;8.938;2022-08-19T14:13:35;25.10;99.90
7588;DHT22;3835;48.850;8.938;2022-08-19T14:16:06;25.30;99.90
7588;DHT22;3835;48.850;8.938;2022-08-19T14:18:33;25.00;99.90
7588;DHT22;3835;48.850;8.938;2022-08-19T14:21:00;25.00;99.90
7588;DHT22;3835;48.850;8.938;2022-08-19T14:23:28;25.10;99.90
7588;DHT22;3835;48.850;8.938;2022-08-19T14:26:03;25.20;99.90
7588;DHT22;3835;48.850;8.938;2022-08-19T14:28:30;25.10;99.90
7588;DHT22;3835;48.850;8.938;2022-08-19T14:30:58;25.10;99.90
7588;DHT22;3835;48.850;8.938;2022-08-19T14:33:25;24.90;99.90
7588;DHT22;3835;48.850;8.938;2022-08-19T14:35:52;24.80;99.90
7588;DHT22;3835;48.850;8.938;2022-08-19T14:38:20;24.70;99.90
7588;DHT22;3835;48.850;8.938;2022-08-19T14:40:47;24.70;99.90
7588;DHT22;3835;48.850;8.938;2022-08-19T14:43:14;24.70;99.90
7588;DHT22;3835;48.850;8.938;2022-08-19T14:45:43;24.90;99.90
7588;DHT22;3835;48.850;8.938;2022-08-19T14:48:11;25.10;99.90
7588;DHT22;3835;48.850;8.938;2022-08-19T14:50:38;25.30;99.90
7588;DHT22;3835;48.850;8.938;2022-08-19T14:53:07;25.70;99.90
7588;DHT22;3835;48.850;8.938;2022-08-19T14:55:34;25.90;99.90
7588;DHT22;3835;48.850;8.938;2022-08-19T14:58:01;26.30;99.90
7588;DHT22;3835;48.850;8.938;2022-08-19T15:00:28;26.60;99.90
7588;DHT22;3835;48.850;8.938;2022-08-19T15:02:55;26.70;99.90
7588;DHT22;3835;48.850;8.938;2022-08-19T15:05:23;26.50;99.90
7588;DHT22;3835;48.850;8.938;2022-08-19T15:07:50;26.80;99.90
7588;DHT22;3835;48.850;8.938;2022-08-19T15:10:17;26.90;99.60
7588;DHT22;3835;48.850;8.938;2022-08-19T15:12:44;26.80;99.90
7588;DHT22;3835;48.850;8.938;2022-08-19T15:15:12;27.00;99.00
7588;DHT22;3835;48.850;8.938;2022-08-19T15:17:39;26.80;98.50
7588;DHT22;3835;48.850;8.938;2022-08-19T15:20:08;26.50;98.00
7588;DHT22;3835;48.850;8.938;2022-08-19T15:22:37;26.20;97.50
7588;DHT22;3835;48.850;8.938;2022-08-19T15:25:05;26.00;97.70
7588;DHT22;3835;48.850;8.938;2022-08-19T15:27:32;26.10;97.80
7588;DHT22;3835;48.850;8.938;2022-08-19T15:30:00;25.80;96.50
7588;DHT22;3835;48.850;8.938;2022-08-19T15:32:26;25.70;96.90
7588;DHT22;3835;48.850;8.938;2022-08-19T15:34:53;25.80;96.50
7588;DHT22;3835;48.850;8.938;2022-08-19T15:37:20;25.80;96.30
7588;DHT22;3835;48.850;8.938;2022-08-19T15:39:49;25.80;96.20
7588;DHT22;3835;48.850;8.938;2022-08-19T15:42:16;25.70;95.90
7588;DHT22;3835;48.850;8.938;2022-08-19T15:44:44;25.60;96.10
7588;DHT22;3835;48.850;8.938;2022-08-19T15:47:11;25.50;96.30
7588;DHT22;3835;48.850;8.938;2022-08-19T15:49:38;25.50;95.80
7588;DHT22;3835;48.850;8.938;2022-08-19T15:52:05;25.40;96.20
7588;DHT22;3835;48.850;8.938;2022-08-19T15:54:32;25.30;95.80
7588;DHT22;3835;48.850;8.938;2022-08-19T15:57:01;25.30;96.20
7588;DHT22;3835;48.850;8.938;2022-08-19T15:59:45;25.30;96.40
7588;DHT22;3835;48.850;8.938;2022-08-19T16:02:30;25.20;96.50
7588;DHT22;3835;48.850;8.938;2022-08-19T16:05:18;25.20;96.10
7588;DHT22;3835;48.850;8.938;2022-08-19T16:08:03;25.20;96.20
7588;DHT22;3835;48.850;8.938;2022-08-19T16:10:30;25.10;96.40
7588;DHT22;3835;48.850;8.938;2022-08-19T16:12:59;25.00;96.60
7588;DHT22;3835;48.850;8.938;2022-08-19T16:15:26;24.90;96.50